sensor_id;sensor_type;location;lat;lon;timestamp;P1;durP1;ratioP1;P2;durP2;ratioP2
8893;SDS011;4483;48.622;9.230;2022-12-07T00:00:55;4.23;;;3.83;;
8893;SDS011;4483;48.622;9.230;2022-12-07T00:03:30;6.47;;;3.53;;
8893;SDS011;4483;48.622;9.230;2022-12-07T00:05:57;4.83;;;3.90;;
8893;SDS011;4483;48.622;9.230;2022-12-07T00:08:23;4.47;;;4.07;;
8893;SDS011;4483;48.622;9.230;2022-12-07T00:10:50;4.10;;;3.70;;
8893;SDS011;4483;48.622;9.230;2022-12-07T00:13:18;4.50;;;3.70;;
8893;SDS011;4483;48.622;9.230;2022-12-07T00:15:45;4.53;;;3.93;;
8893;SDS011;4483;48.622;9.230;2022-12-07T00:18:11;4.67;;;3.50;;
8893;SDS011;4483;48.622;9.230;2022-12-07T00:20:38;5.27;;;3.50;;
8893;SDS011;4483;48.622;9.230;2022-12-07T00:23:05;5.07;;;3.70;;
8893;SDS011;4483;48.622;9.230;2022-12-07T00:25:31;4.83;;;3.67;;
8893;SDS011;4483;48.622;9.230;2022-12-07T00:27:58;3.93;;;3.10;;
8893;SDS011;4483;48.622;9.230;2022-12-07T00:30:26;3.83;;;3.43;;
8893;SDS011;4483;48.622;9.230;2022-12-07T00:32:53;5.37;;;3.70;;
8893;SDS011;4483;48.622;9.230;2022-12-07T00:35:19;3.57;;;3.27;;
8893;SDS011;4483;48.622;9.230;2022-12-07T00:37:46;4.00;;;3.60;;
8893;SDS011;4483;48.622;9.230;2022-12-07T00:40:13;5.47;;;3.60;;
8893;SDS011;4483;48.622;9.230;2022-12-07T00:42:39;4.73;;;3.33;;
8893;SDS011;4483;48.622;9.230;2022-12-07T00:45:06;4.17;;;3.50;;
8893;SDS011;4483;48.622;9.230;2022-12-07T00:47:35;3.67;;;3.37;;
8893;SDS011;4483;48.622;9.230;2022-12-07T00:50:02;3.80;;;3.50;;
8893;SDS011;4483;48.622;9.230;2022-12-07T00:52:29;3.63;;;3.27;;
8893;SDS011;4483;48.622;9.230;2022-12-07T00:54:55;6.70;;;3.30;;
8893;SDS011;4483;48.622;9.230;2022-12-07T00:57:22;3.40;;;3.00;;
8893;SDS011;4483;48.622;9.230;2022-12-07T00:59:49;3.77;;;3.37;;
8893;SDS011;4483;48.622;9.230;2022-12-07T01:02:15;3.63;;;3.33;;
8893;SDS011;4483;48.622;9.230;2022-12-07T01:04:43;3.67;;;3.37;;
8893;SDS011;4483;48.622;9.230;2022-12-07T01:07:10;3.10;;;2.90;;
8893;SDS011;4483;48.622;9.230;2022-12-07T01:09:37;4.43;;;3.03;;
8893;SDS011;4483;48.622;9.230;2022-12-07T01:12:03;3.63;;;2.97;;
8893;SDS011;4483;48.622;9.230;2022-12-07T01:14:30;5.77;;;3.47;;
8893;SDS011;4483;48.622;9.230;2022-12-07T01:16:57;3.40;;;3.10;;
8893;SDS011;4483;48.622;9.230;2022-12-07T01:19:23;4.03;;;3.40;;
8893;SDS011;4483;48.622;9.230;2022-12-07T01:21:51;3.93;;;3.57;;
8893;SDS011;4483;48.622;9.230;2022-12-07T01:24:18;3.80;;;3.40;;
8893;SDS011;4483;48.622;9.230;2022-12-07T01:26:45;3.40;;;3.10;;
8893;SDS011;4483;48.622;9.230;2022-12-07T01:29:11;3.37;;;3.07;;
8893;SDS011;4483;48.622;9.230;2022-12-07T01:31:38;3.77;;;3.07;;
8893;SDS011;4483;48.622;9.230;2022-12-07T01:34:04;3.10;;;2.90;;
8893;SDS011;4483;48.622;9.230;2022-12-07T01:36:32;3.50;;;3.20;;
8893;SDS011;4483;48.622;9.230;2022-12-07T01:39:02;5.83;;;3.10;;
8893;SDS011;4483;48.622;9.230;2022-12-07T01:41:32;3.27;;;2.97;;
8893;SDS011;4483;48.622;9.230;2022-12-07T01:44:11;3.50;;;3.17;;
8893;SDS011;4483;48.622;9.230;2022-12-07T01:46:40;3.73;;;3.30;;
8893;SDS011;4483;48.622;9.230;2022-12-07T01:49:08;3.47;;;3.17;;
8893;SDS011;4483;48.622;9.230;2022-12-07T01:51:38;3.77;;;3.10;;
8893;SDS011;4483;48.622;9.230;2022-12-07T01:54:09;3.57;;;3.13;;
8893;SDS011;4483;48.622;9.230;2022-12-07T01:56:38;6.27;;;3.43;;
8893;SDS011;4483;48.622;9.230;2022-12-07T01:59:07;5.33;;;2.97;;
8893;SDS011;4483;48.622;9.230;2022-12-07T02:01:34;4.33;;;2.87;;
8893;SDS011;4483;48.622;9.230;2022-12-07T02:04:01;2.93;;;2.73;;
8893;SDS011;4483;48.622;9.230;2022-12-07T02:06:28;2.83;;;2.63;;
8893;SDS011;4483;48.622;9.230;2022-12-07T02:08:55;3.50;;;3.20;;
8893;SDS011;4483;48.622;9.230;2022-12-07T02:11:24;3.90;;;3.60;;
8893;SDS011;4483;48.622;9.230;2022-12-07T02:13:50;3.37;;;3.07;;
8893;SDS011;4483;48.622;9.230;2022-12-07T02:16:21;4.73;;;4.33;;
8893;SDS011;4483;48.622;9.230;2022-12-07T02:18:57;4.10;;;3.73;;
8893;SDS011;4483;48.622;9.230;2022-12-07T02:21:37;3.60;;;3.30;;
8893;SDS011;4483;48.622;9.230;2022-12-07T02:24:18;3.30;;;3.00;;
8893;SDS011;4483;48.622;9.230;2022-12-07T02:29:56;4.97;;;3.60;;
8893;SDS011;4483;48.622;9.230;2022-12-07T02:32:27;4.60;;;4.20;;
8893;SDS011;4483;48.622;9.230;2022-12-07T02:35:04;5.13;;;4.57;;
8893;SDS011;4483;48.622;9.230;2022-12-07T02:37:34;6.57;;;5.43;;
8893;SDS011;4483;48.622;9.230;2022-12-07T02:40:06;5.93;;;5.33;;
8893;SDS011;4483;48.622;9.230;2022-12-07T02:42:39;5.60;;;4.60;;
8893;SDS011;4483;48.622;9.230;2022-12-07T02:45:10;7.17;;;4.70;;
8893;SDS011;4483;48.622;9.230;2022-12-07T02:47:41;5.03;;;4.20;;
8893;SDS011;4483;48.622;9.230;2022-12-07T02:50:09;5.23;;;4.27;;
8893;SDS011;4483;48.622;9.230;2022-12-07T02:52:37;3.87;;;3.50;;
8893;SDS011;4483;48.622;9.230;2022-12-07T02:55:03;3.97;;;3.57;;
8893;SDS011;4483;48.622;9.230;2022-12-07T02:57:36;3.93;;;3.63;;
8893;SDS011;4483;48.622;9.230;2022-12-07T03:00:13;3.60;;;3.30;;
8893;SDS011;4483;48.622;9.230;2022-12-07T03:02:46;4.03;;;3.63;;
8893;SDS011;4483;48.622;9.230;2022-12-07T03:05:31;8.90;;;3.40;;
8893;SDS011;4483;48.622;9.230;2022-12-07T03:08:18;3.57;;;3.27;;
8893;SDS011;4483;48.622;9.230;2022-12-07T03:10:56;4.63;;;3.37;;
8893;SDS011;4483;48.622;9.230;2022-12-07T03:13:28;4.57;;;3.60;;
8893;SDS011;4483;48.622;9.230;2022-12-07T03:16:02;4.10;;;3.70;;
8893;SDS011;4483;48.622;9.230;2022-12-07T03:18:33;5.07;;;3.90;;
8893;SDS011;4483;48.622;9.230;2022-12-07T03:21:04;4.23;;;3.80;;
8893;SDS011;4483;48.622;9.230;2022-12-07T03:23:37;4.70;;;3.83;;
8893;SDS011;4483;48.622;9.230;2022-12-07T03:26:06;4.53;;;3.90;;
8893;SDS011;4483;48.622;9.230;2022-12-07T03:28:40;4.60;;;4.20;;
8893;SDS011;4483;48.622;9.230;2022-12-07T03:31:16;4.27;;;3.87;;
8893;SDS011;4483;48.622;9.230;2022-12-07T03:33:48;4.70;;;4.30;;
8893;SDS011;4483;48.622;9.230;2022-12-07T03:36:19;4.17;;;3.77;;
8893;SDS011;4483;48.622;9.230;2022-12-07T03:38:53;4.80;;;4.40;;
8893;SDS011;4483;48.622;9.230;2022-12-07T03:41:24;5.03;;;4.20;;
8893;SDS011;4483;48.622;9.230;2022-12-07T03:43:53;5.50;;;4.83;;
8893;SDS011;4483;48.622;9.230;2022-12-07T03:46:24;4.90;;;4.40;;
8893;SDS011;4483;48.622;9.230;2022-12-07T03:48:59;5.40;;;4.90;;
8893;SDS011;4483;48.622;9.230;2022-12-07T03:51:32;5.53;;;4.90;;
8893;SDS011;4483;48.622;9.230;2022-12-07T03:54:07;4.97;;;4.47;;
8893;SDS011;4483;48.622;9.230;2022-12-07T03:56:39;4.77;;;4.37;;
8893;SDS011;4483;48.622;9.230;2022-12-07T03:59:08;5.10;;;4.30;;
8893;SDS011;4483;48.622;9.230;2022-12-07T04:01:38;4.73;;;4.20;;
8893;SDS011;4483;48.622;9.230;2022-12-07T04:04:07;5.80;;;5.20;;
8893;SDS011;4483;48.622;9.230;2022-12-07T04:06:33;5.30;;;4.80;;
8893;SDS011;4483;48.622;9.230;2022-12-07T04:09:00;5.03;;;4.53;;
8893;SDS011;4483;48.622;9.230;2022-12-07T04:11:26;5.90;;;4.83;;
8893;SDS011;4483;48.622;9.230;2022-12-07T04:13:53;6.50;;;5.07;;
8893;SDS011;4483;48.622;9.230;2022-12-07T04:16:38;5.80;;;4.70;;
8893;SDS011;4483;48.622;9.230;2022-12-07T04:19:05;7.93;;;5.27;;
8893;SDS011;4483;48.622;9.230;2022-12-07T04:21:31;5.47;;;4.97;;
8893;SDS011;4483;48.622;9.230;2022-12-07T04:23:58;4.93;;;4.10;;
8893;SDS011;4483;48.622;9.230;2022-12-07T04:26:25;6.40;;;4.90;;
8893;SDS011;4483;48.622;9.230;2022-12-07T04:28:51;4.73;;;4.10;;
8893;SDS011;4483;48.622;9.230;2022-12-07T04:31:18;4.40;;;4.00;;
8893;SDS011;4483;48.622;9.230;2022-12-07T04:33:46;4.40;;;4.00;;
8893;SDS011;4483;48.622;9.230;2022-12-07T04:36:12;6.87;;;5.00;;
8893;SDS011;4483;48.622;9.230;2022-12-07T04:38:39;6.00;;;4.73;;
8893;SDS011;4483;48.622;9.230;2022-12-07T04:41:06;5.80;;;5.20;;
8893;SDS011;4483;48.622;9.230;2022-12-07T04:43:33;5.63;;;5.13;;
8893;SDS011;4483;48.622;9.230;2022-12-07T04:46:01;7.50;;;5.20;;
8893;SDS011;4483;48.622;9.230;2022-12-07T04:48:28;4.83;;;4.33;;
8893;SDS011;4483;48.622;9.230;2022-12-07T04:50:56;5.30;;;4.67;;
8893;SDS011;4483;48.622;9.230;2022-12-07T04:53:23;6.30;;;5.03;;
8893;SDS011;4483;48.622;9.230;2022-12-07T04:55:49;5.80;;;4.87;;
8893;SDS011;4483;48.622;9.230;2022-12-07T04:58:16;5.10;;;4.43;;
8893;SDS011;4483;48.622;9.230;2022-12-07T05:00:43;6.13;;;4.47;;
8893;SDS011;4483;48.622;9.230;2022-12-07T05:03:09;5.07;;;4.53;;
8893;SDS011;4483;48.622;9.230;2022-12-07T05:05:39;5.77;;;5.13;;
8893;SDS011;4483;48.622;9.230;2022-12-07T05:08:08;5.70;;;5.00;;
8893;SDS011;4483;48.622;9.230;2022-12-07T05:10:34;6.10;;;4.90;;
8893;SDS011;4483;48.622;9.230;2022-12-07T05:13:01;5.67;;;5.00;;
8893;SDS011;4483;48.622;9.230;2022-12-07T05:15:27;5.13;;;4.63;;
8893;SDS011;4483;48.622;9.230;2022-12-07T05:17:54;5.27;;;4.63;;
8893;SDS011;4483;48.622;9.230;2022-12-07T05:20:21;5.40;;;4.83;;
8893;SDS011;4483;48.622;9.230;2022-12-07T05:22:47;9.00;;;5.57;;
8893;SDS011;4483;48.622;9.230;2022-12-07T05:25:15;5.67;;;5.03;;
8893;SDS011;4483;48.622;9.230;2022-12-07T05:27:42;5.27;;;4.77;;
8893;SDS011;4483;48.622;9.230;2022-12-07T05:30:09;5.97;;;5.10;;
8893;SDS011;4483;48.622;9.230;2022-12-07T05:32:36;6.77;;;4.90;;
8893;SDS011;4483;48.622;9.230;2022-12-07T05:35:03;6.00;;;5.03;;
8893;SDS011;4483;48.622;9.230;2022-12-07T05:37:30;5.40;;;4.90;;
8893;SDS011;4483;48.622;9.230;2022-12-07T05:39:57;8.33;;;4.63;;
8893;SDS011;4483;48.622;9.230;2022-12-07T05:42:25;5.40;;;4.90;;
8893;SDS011;4483;48.622;9.230;2022-12-07T05:44:51;4.70;;;4.30;;
8893;SDS011;4483;48.622;9.230;2022-12-07T05:47:18;5.77;;;4.60;;
8893;SDS011;4483;48.622;9.230;2022-12-07T05:49:45;7.03;;;4.50;;
8893;SDS011;4483;48.622;9.230;2022-12-07T05:52:11;5.13;;;4.53;;
8893;SDS011;4483;48.622;9.230;2022-12-07T05:54:38;5.10;;;4.60;;
8893;SDS011;4483;48.622;9.230;2022-12-07T05:57:05;5.20;;;4.70;;
8893;SDS011;4483;48.622;9.230;2022-12-07T05:59:33;5.70;;;5.10;;
8893;SDS011;4483;48.622;9.230;2022-12-07T06:01:59;6.23;;;5.30;;
8893;SDS011;4483;48.622;9.230;2022-12-07T06:04:28;7.40;;;5.33;;
8893;SDS011;4483;48.622;9.230;2022-12-07T06:06:56;6.83;;;5.90;;
8893;SDS011;4483;48.622;9.230;2022-12-07T06:09:23;5.63;;;5.10;;
8893;SDS011;4483;48.622;9.230;2022-12-07T06:11:51;6.87;;;5.30;;
8893;SDS011;4483;48.622;9.230;2022-12-07T06:14:37;5.40;;;4.77;;
8893;SDS011;4483;48.622;9.230;2022-12-07T06:17:04;7.60;;;5.50;;
8893;SDS011;4483;48.622;9.230;2022-12-07T06:19:31;7.77;;;5.67;;
8893;SDS011;4483;48.622;9.230;2022-12-07T06:21:58;6.30;;;5.23;;
8893;SDS011;4483;48.622;9.230;2022-12-07T06:24:25;5.00;;;4.50;;
8893;SDS011;4483;48.622;9.230;2022-12-07T06:26:51;7.10;;;5.30;;
8893;SDS011;4483;48.622;9.230;2022-12-07T06:29:18;5.80;;;5.20;;
8893;SDS011;4483;48.622;9.230;2022-12-07T06:31:46;4.63;;;4.13;;
8893;SDS011;4483;48.622;9.230;2022-12-07T06:34:14;5.33;;;4.47;;
8893;SDS011;4483;48.622;9.230;2022-12-07T06:36:42;5.13;;;4.63;;
8893;SDS011;4483;48.622;9.230;2022-12-07T06:39:09;5.27;;;4.33;;
8893;SDS011;4483;48.622;9.230;2022-12-07T06:41:36;6.53;;;5.33;;
8893;SDS011;4483;48.622;9.230;2022-12-07T06:44:03;5.77;;;4.80;;
8893;SDS011;4483;48.622;9.230;2022-12-07T06:46:30;6.53;;;4.87;;
8893;SDS011;4483;48.622;9.230;2022-12-07T06:48:59;6.43;;;5.82;;
8893;SDS011;4483;48.622;9.230;2022-12-07T06:51:25;6.43;;;5.77;;
8893;SDS011;4483;48.622;9.230;2022-12-07T06:53:52;6.30;;;5.00;;
8893;SDS011;4483;48.622;9.230;2022-12-07T06:56:19;7.03;;;4.93;;
8893;SDS011;4483;48.622;9.230;2022-12-07T06:58:46;5.43;;;4.10;;
8893;SDS011;4483;48.622;9.230;2022-12-07T07:01:13;5.63;;;4.07;;
8893;SDS011;4483;48.622;9.230;2022-12-07T07:03:42;5.10;;;3.93;;
8893;SDS011;4483;48.622;9.230;2022-12-07T07:06:10;5.10;;;4.57;;
8893;SDS011;4483;48.622;9.230;2022-12-07T07:08:37;4.90;;;4.40;;
8893;SDS011;4483;48.622;9.230;2022-12-07T07:11:04;5.90;;;4.97;;
8893;SDS011;4483;48.622;9.230;2022-12-07T07:13:32;4.80;;;4.30;;
8893;SDS011;4483;48.622;9.230;2022-12-07T07:15:59;4.97;;;4.47;;
8893;SDS011;4483;48.622;9.230;2022-12-07T07:18:26;7.10;;;4.70;;
8893;SDS011;4483;48.622;9.230;2022-12-07T07:20:53;5.13;;;4.63;;
8893;SDS011;4483;48.622;9.230;2022-12-07T07:23:21;6.53;;;4.87;;
8893;SDS011;4483;48.622;9.230;2022-12-07T07:25:48;5.30;;;4.67;;
8893;SDS011;4483;48.622;9.230;2022-12-07T07:28:15;5.57;;;4.60;;
8893;SDS011;4483;48.622;9.230;2022-12-07T07:30:42;9.67;;;4.30;;
8893;SDS011;4483;48.622;9.230;2022-12-07T07:33:09;4.43;;;4.03;;
8893;SDS011;4483;48.622;9.230;2022-12-07T07:35:37;9.87;;;4.90;;
8893;SDS011;4483;48.622;9.230;2022-12-07T07:38:04;8.00;;;4.30;;
8893;SDS011;4483;48.622;9.230;2022-12-07T07:40:32;5.27;;;4.50;;
8893;SDS011;4483;48.622;9.230;2022-12-07T07:42:59;5.00;;;4.50;;
8893;SDS011;4483;48.622;9.230;2022-12-07T07:45:26;5.07;;;4.40;;
8893;SDS011;4483;48.622;9.230;2022-12-07T07:47:53;4.27;;;3.83;;
8893;SDS011;4483;48.622;9.230;2022-12-07T07:50:20;5.17;;;4.67;;
8893;SDS011;4483;48.622;9.230;2022-12-07T07:52:46;5.03;;;4.53;;
8893;SDS011;4483;48.622;9.230;2022-12-07T07:55:13;5.20;;;4.70;;
8893;SDS011;4483;48.622;9.230;2022-12-07T07:57:42;5.20;;;4.53;;
8893;SDS011;4483;48.622;9.230;2022-12-07T08:00:09;7.57;;;4.30;;
8893;SDS011;4483;48.622;9.230;2022-12-07T08:02:37;4.60;;;4.13;;
8893;SDS011;4483;48.622;9.230;2022-12-07T08:05:04;4.60;;;4.20;;
8893;SDS011;4483;48.622;9.230;2022-12-07T08:07:32;4.67;;;4.20;;
8893;SDS011;4483;48.622;9.230;2022-12-07T08:09:58;5.10;;;4.47;;
8893;SDS011;4483;48.622;9.230;2022-12-07T08:12:25;5.00;;;4.50;;
8893;SDS011;4483;48.622;9.230;2022-12-07T08:14:53;4.50;;;3.97;;
8893;SDS011;4483;48.622;9.230;2022-12-07T08:17:20;5.53;;;4.13;;
8893;SDS011;4483;48.622;9.230;2022-12-07T08:19:46;4.57;;;4.17;;
8893;SDS011;4483;48.622;9.230;2022-12-07T08:22:13;5.53;;;4.10;;
8893;SDS011;4483;48.622;9.230;2022-12-07T08:24:39;4.37;;;3.97;;
8893;SDS011;4483;48.622;9.230;2022-12-07T08:27:06;4.67;;;4.27;;
8893;SDS011;4483;48.622;9.230;2022-12-07T08:29:33;4.80;;;4.27;;
8893;SDS011;4483;48.622;9.230;2022-12-07T08:32:01;4.70;;;4.00;;
8893;SDS011;4483;48.622;9.230;2022-12-07T08:34:28;4.77;;;4.23;;
8893;SDS011;4483;48.622;9.230;2022-12-07T08:36:54;4.87;;;4.37;;
8893;SDS011;4483;48.622;9.230;2022-12-07T08:39:21;6.60;;;4.60;;
8893;SDS011;4483;48.622;9.230;2022-12-07T08:41:47;4.77;;;4.23;;
8893;SDS011;4483;48.622;9.230;2022-12-07T08:44:14;6.40;;;4.40;;
8893;SDS011;4483;48.622;9.230;2022-12-07T08:46:41;6.50;;;4.20;;
8893;SDS011;4483;48.622;9.230;2022-12-07T08:49:15;7.00;;;4.83;;
8893;SDS011;4483;48.622;9.230;2022-12-07T08:51:45;7.17;;;4.43;;
8893;SDS011;4483;48.622;9.230;2022-12-07T08:54:13;5.23;;;4.43;;
8893;SDS011;4483;48.622;9.230;2022-12-07T08:56:42;6.50;;;5.03;;
8893;SDS011;4483;48.622;9.230;2022-12-07T08:59:10;6.33;;;4.80;;
8893;SDS011;4483;48.622;9.230;2022-12-07T09:01:39;7.83;;;5.13;;
8893;SDS011;4483;48.622;9.230;2022-12-07T09:04:06;5.60;;;5.10;;
8893;SDS011;4483;48.622;9.230;2022-12-07T09:06:34;5.83;;;5.10;;
8893;SDS011;4483;48.622;9.230;2022-12-07T09:09:01;8.07;;;5.60;;
8893;SDS011;4483;48.622;9.230;2022-12-07T09:11:28;6.50;;;5.20;;
8893;SDS011;4483;48.622;9.230;2022-12-07T09:13:55;7.53;;;5.77;;
8893;SDS011;4483;48.622;9.230;2022-12-07T09:16:22;5.47;;;4.97;;
8893;SDS011;4483;48.622;9.230;2022-12-07T09:18:49;6.07;;;5.33;;
8893;SDS011;4483;48.622;9.230;2022-12-07T09:21:15;8.30;;;5.83;;
8893;SDS011;4483;48.622;9.230;2022-12-07T09:23:43;7.63;;;5.77;;
8893;SDS011;4483;48.622;9.230;2022-12-07T09:26:10;8.83;;;5.27;;
8893;SDS011;4483;48.622;9.230;2022-12-07T09:28:37;5.60;;;5.10;;
8893;SDS011;4483;48.622;9.230;2022-12-07T09:31:04;8.77;;;5.80;;
8893;SDS011;4483;48.622;9.230;2022-12-07T09:33:32;5.13;;;4.43;;
8893;SDS011;4483;48.622;9.230;2022-12-07T09:35:58;5.70;;;4.60;;
8893;SDS011;4483;48.622;9.230;2022-12-07T09:38:25;6.27;;;5.33;;
8893;SDS011;4483;48.622;9.230;2022-12-07T09:40:53;5.87;;;5.30;;
8893;SDS011;4483;48.622;9.230;2022-12-07T09:43:21;5.57;;;5.07;;
8893;SDS011;4483;48.622;9.230;2022-12-07T09:45:50;5.63;;;4.80;;
8893;SDS011;4483;48.622;9.230;2022-12-07T09:48:18;5.90;;;5.07;;
8893;SDS011;4483;48.622;9.230;2022-12-07T09:50:47;5.60;;;5.00;;
8893;SDS011;4483;48.622;9.230;2022-12-07T09:53:16;5.37;;;4.57;;
8893;SDS011;4483;48.622;9.230;2022-12-07T09:55:49;5.77;;;4.73;;
8893;SDS011;4483;48.622;9.230;2022-12-07T09:58:19;5.60;;;4.63;;
8893;SDS011;4483;48.622;9.230;2022-12-07T10:00:49;6.90;;;4.73;;
8893;SDS011;4483;48.622;9.230;2022-12-07T10:03:18;4.00;;;3.70;;
8893;SDS011;4483;48.622;9.230;2022-12-07T10:05:46;6.03;;;4.30;;
8893;SDS011;4483;48.622;9.230;2022-12-07T10:08:15;5.57;;;4.77;;
8893;SDS011;4483;48.622;9.230;2022-12-07T10:10:42;4.27;;;3.87;;
8893;SDS011;4483;48.622;9.230;2022-12-07T10:13:10;5.27;;;4.40;;
8893;SDS011;4483;48.622;9.230;2022-12-07T10:15:44;6.27;;;4.40;;
8893;SDS011;4483;48.622;9.230;2022-12-07T10:18:25;5.23;;;4.30;;
8893;SDS011;4483;48.622;9.230;2022-12-07T10:21:02;5.80;;;4.20;;
8893;SDS011;4483;48.622;9.230;2022-12-07T10:23:32;9.37;;;4.33;;
8893;SDS011;4483;48.622;9.230;2022-12-07T10:25:59;4.50;;;4.10;;
8893;SDS011;4483;48.622;9.230;2022-12-07T10:28:45;10.17;;;6.07;;
8893;SDS011;4483;48.622;9.230;2022-12-07T10:31:16;7.50;;;4.40;;
8893;SDS011;4483;48.622;9.230;2022-12-07T10:33:49;5.70;;;4.37;;
8893;SDS011;4483;48.622;9.230;2022-12-07T10:36:19;5.83;;;3.90;;
8893;SDS011;4483;48.622;9.230;2022-12-07T10:38:49;6.30;;;3.90;;
8893;SDS011;4483;48.622;9.230;2022-12-07T10:41:17;3.83;;;3.53;;
8893;SDS011;4483;48.622;9.230;2022-12-07T10:43:52;5.73;;;3.73;;
8893;SDS011;4483;48.622;9.230;2022-12-07T10:52:55;3.20;;;2.83;;
8893;SDS011;4483;48.622;9.230;2022-12-07T10:55:44;3.23;;;2.90;;
8893;SDS011;4483;48.622;9.230;2022-12-07T10:58:31;6.40;;;3.00;;
8893;SDS011;4483;48.622;9.230;2022-12-07T11:01:11;4.00;;;3.13;;
8893;SDS011;4483;48.622;9.230;2022-12-07T11:06:42;3.90;;;3.60;;
8893;SDS011;4483;48.622;9.230;2022-12-07T11:09:36;4.77;;;4.00;;
8893;SDS011;4483;48.622;9.230;2022-12-07T11:12:24;4.83;;;3.97;;
8893;SDS011;4483;48.622;9.230;2022-12-07T11:14:58;3.57;;;3.27;;
8893;SDS011;4483;48.622;9.230;2022-12-07T11:17:32;8.33;;;5.70;;
8893;SDS011;4483;48.622;9.230;2022-12-07T11:20:13;18.27;;;13.80;;
8893;SDS011;4483;48.622;9.230;2022-12-07T11:22:51;5.00;;;4.47;;
8893;SDS011;4483;48.622;9.230;2022-12-07T11:25:26;3.67;;;3.37;;
8893;SDS011;4483;48.622;9.230;2022-12-07T11:28:02;4.33;;;3.60;;
8893;SDS011;4483;48.622;9.230;2022-12-07T11:30:41;3.63;;;3.10;;
8893;SDS011;4483;48.622;9.230;2022-12-07T11:33:15;3.20;;;2.90;;
8893;SDS011;4483;48.622;9.230;2022-12-07T11:35:53;3.47;;;3.17;;
8893;SDS011;4483;48.622;9.230;2022-12-07T11:38:30;2.83;;;2.60;;
8893;SDS011;4483;48.622;9.230;2022-12-07T11:41:04;3.30;;;3.00;;
8893;SDS011;4483;48.622;9.230;2022-12-07T11:43:41;4.50;;;3.07;;
8893;SDS011;4483;48.622;9.230;2022-12-07T11:46:16;3.43;;;3.13;;
8893;SDS011;4483;48.622;9.230;2022-12-07T11:48:45;3.87;;;3.50;;
8893;SDS011;4483;48.622;9.230;2022-12-07T11:51:18;4.40;;;3.30;;
8893;SDS011;4483;48.622;9.230;2022-12-07T11:53:48;4.33;;;3.57;;
8893;SDS011;4483;48.622;9.230;2022-12-07T11:56:19;3.50;;;3.20;;
8893;SDS011;4483;48.622;9.230;2022-12-07T11:58:49;4.40;;;3.50;;
8893;SDS011;4483;48.622;9.230;2022-12-07T12:01:25;4.37;;;3.00;;
8893;SDS011;4483;48.622;9.230;2022-12-07T12:04:01;5.17;;;3.87;;
8893;SDS011;4483;48.622;9.230;2022-12-07T12:06:34;3.83;;;3.53;;
8893;SDS011;4483;48.622;9.230;2022-12-07T12:09:02;5.17;;;4.20;;
8893;SDS011;4483;48.622;9.230;2022-12-07T12:11:39;7.77;;;4.37;;
8893;SDS011;4483;48.622;9.230;2022-12-07T12:14:38;5.30;;;3.90;;
8893;SDS011;4483;48.622;9.230;2022-12-07T12:17:16;4.23;;;3.87;;
8893;SDS011;4483;48.622;9.230;2022-12-07T12:20:15;6.13;;;4.23;;
8893;SDS011;4483;48.622;9.230;2022-12-07T12:22:50;4.77;;;4.10;;
8893;SDS011;4483;48.622;9.230;2022-12-07T12:25:23;5.00;;;4.20;;
8893;SDS011;4483;48.622;9.230;2022-12-07T12:27:53;5.17;;;4.00;;
8893;SDS011;4483;48.622;9.230;2022-12-07T12:30:25;5.97;;;4.13;;
8893;SDS011;4483;48.622;9.230;2022-12-07T12:33:00;6.53;;;3.83;;
8893;SDS011;4483;48.622;9.230;2022-12-07T12:35:30;4.07;;;3.67;;
8893;SDS011;4483;48.622;9.230;2022-12-07T12:40:51;4.27;;;3.87;;
8893;SDS011;4483;48.622;9.230;2022-12-07T12:55:15;4.53;;;4.13;;
8893;SDS011;4483;48.622;9.230;2022-12-07T12:57:46;4.83;;;4.20;;
8893;SDS011;4483;48.622;9.230;2022-12-07T13:00:17;5.77;;;3.57;;
8893;SDS011;4483;48.622;9.230;2022-12-07T13:02:49;4.17;;;3.83;;
8893;SDS011;4483;48.622;9.230;2022-12-07T13:05:18;4.10;;;3.70;;
8893;SDS011;4483;48.622;9.230;2022-12-07T13:07:52;4.20;;;3.70;;
8893;SDS011;4483;48.622;9.230;2022-12-07T13:10:44;2.93;;;2.67;;
8893;SDS011;4483;48.622;9.230;2022-12-07T13:25:05;3.40;;;2.50;;
8893;SDS011;4483;48.622;9.230;2022-12-07T13:27:37;3.80;;;2.57;;
8893;SDS011;4483;48.622;9.230;2022-12-07T13:30:09;4.10;;;2.80;;
8893;SDS011;4483;48.622;9.230;2022-12-07T13:32:41;2.90;;;2.40;;
8893;SDS011;4483;48.622;9.230;2022-12-07T13:35:28;3.00;;;2.73;;
8893;SDS011;4483;48.622;9.230;2022-12-07T13:38:01;3.07;;;2.37;;
8893;SDS011;4483;48.622;9.230;2022-12-07T13:40:30;2.70;;;2.50;;
8893;SDS011;4483;48.622;9.230;2022-12-07T13:42:59;2.60;;;2.40;;
8893;SDS011;4483;48.622;9.230;2022-12-07T13:45:27;2.47;;;2.27;;
8893;SDS011;4483;48.622;9.230;2022-12-07T13:48:15;3.53;;;2.33;;
8893;SDS011;4483;48.622;9.230;2022-12-07T13:50:52;2.40;;;2.17;;
8893;SDS011;4483;48.622;9.230;2022-12-07T13:53:20;2.60;;;2.40;;
8893;SDS011;4483;48.622;9.230;2022-12-07T13:55:47;2.60;;;2.40;;
8893;SDS011;4483;48.622;9.230;2022-12-07T13:58:16;2.40;;;2.20;;
8893;SDS011;4483;48.622;9.230;2022-12-07T14:00:43;2.40;;;2.20;;
8893;SDS011;4483;48.622;9.230;2022-12-07T14:03:25;2.90;;;2.27;;
8893;SDS011;4483;48.622;9.230;2022-12-07T14:09:06;2.27;;;2.10;;
8893;SDS011;4483;48.622;9.230;2022-12-07T14:11:34;2.40;;;2.20;;
8893;SDS011;4483;48.622;9.230;2022-12-07T14:14:03;2.70;;;2.50;;
8893;SDS011;4483;48.622;9.230;2022-12-07T14:16:31;2.73;;;2.47;;
8893;SDS011;4483;48.622;9.230;2022-12-07T14:19:00;3.37;;;2.50;;
8893;SDS011;4483;48.622;9.230;2022-12-07T14:21:29;2.80;;;2.60;;
8893;SDS011;4483;48.622;9.230;2022-12-07T14:24:09;2.93;;;2.63;;
8893;SDS011;4483;48.622;9.230;2022-12-07T14:26:38;2.63;;;2.43;;
8893;SDS011;4483;48.622;9.230;2022-12-07T14:29:19;3.10;;;2.80;;
8893;SDS011;4483;48.622;9.230;2022-12-07T14:31:47;3.40;;;3.10;;
8893;SDS011;4483;48.622;9.230;2022-12-07T14:34:14;3.63;;;2.90;;
8893;SDS011;4483;48.622;9.230;2022-12-07T14:36:41;3.93;;;3.10;;
8893;SDS011;4483;48.622;9.230;2022-12-07T14:39:07;4.37;;;3.07;;
8893;SDS011;4483;48.622;9.230;2022-12-07T14:41:34;3.90;;;2.90;;
8893;SDS011;4483;48.622;9.230;2022-12-07T14:44:20;2.90;;;2.60;;
8893;SDS011;4483;48.622;9.230;2022-12-07T14:46:48;4.13;;;2.60;;
8893;SDS011;4483;48.622;9.230;2022-12-07T14:49:15;2.90;;;2.70;;
8893;SDS011;4483;48.622;9.230;2022-12-07T14:51:44;3.50;;;2.63;;
8893;SDS011;4483;48.622;9.230;2022-12-07T14:54:14;2.50;;;2.30;;
8893;SDS011;4483;48.622;9.230;2022-12-07T14:56:43;2.87;;;2.67;;
8893;SDS011;4483;48.622;9.230;2022-12-07T14:59:11;6.70;;;2.50;;
8893;SDS011;4483;48.622;9.230;2022-12-07T15:01:39;3.20;;;2.37;;
8893;SDS011;4483;48.622;9.230;2022-12-07T15:04:05;2.17;;;1.97;;
8893;SDS011;4483;48.622;9.230;2022-12-07T15:06:32;3.73;;;1.73;;
8893;SDS011;4483;48.622;9.230;2022-12-07T15:08:59;2.20;;;2.00;;
8893;SDS011;4483;48.622;9.230;2022-12-07T15:11:26;1.90;;;1.80;;
8893;SDS011;4483;48.622;9.230;2022-12-07T15:13:53;1.90;;;1.80;;
8893;SDS011;4483;48.622;9.230;2022-12-07T15:16:36;2.20;;;2.00;;
8893;SDS011;4483;48.622;9.230;2022-12-07T15:19:07;2.10;;;1.90;;
8893;SDS011;4483;48.622;9.230;2022-12-07T15:21:38;2.00;;;1.80;;
8893;SDS011;4483;48.622;9.230;2022-12-07T15:24:05;2.27;;;2.00;;
8893;SDS011;4483;48.622;9.230;2022-12-07T15:26:32;2.30;;;2.00;;
8893;SDS011;4483;48.622;9.230;2022-12-07T15:28:59;2.60;;;2.17;;
8893;SDS011;4483;48.622;9.230;2022-12-07T15:31:25;2.20;;;2.00;;
8893;SDS011;4483;48.622;9.230;2022-12-07T15:33:52;2.50;;;2.27;;
8893;SDS011;4483;48.622;9.230;2022-12-07T15:36:21;5.07;;;2.30;;
8893;SDS011;4483;48.622;9.230;2022-12-07T15:38:49;2.10;;;2.00;;
8893;SDS011;4483;48.622;9.230;2022-12-07T15:41:16;3.67;;;2.20;;
8893;SDS011;4483;48.622;9.230;2022-12-07T15:43:43;4.30;;;1.90;;
8893;SDS011;4483;48.622;9.230;2022-12-07T15:46:31;1.80;;;1.70;;
8893;SDS011;4483;48.622;9.230;2022-12-07T15:48:58;2.27;;;2.07;;
8893;SDS011;4483;48.622;9.230;2022-12-07T15:51:26;2.20;;;2.10;;
8893;SDS011;4483;48.622;9.230;2022-12-07T15:53:53;2.97;;;1.70;;
8893;SDS011;4483;48.622;9.230;2022-12-07T15:56:20;2.13;;;2.00;;
8893;SDS011;4483;48.622;9.230;2022-12-07T15:58:47;2.37;;;1.80;;
8893;SDS011;4483;48.622;9.230;2022-12-07T16:01:14;3.50;;;1.90;;
8893;SDS011;4483;48.622;9.230;2022-12-07T16:03:42;1.87;;;1.77;;
8893;SDS011;4483;48.622;9.230;2022-12-07T16:06:09;1.60;;;1.50;;
8893;SDS011;4483;48.622;9.230;2022-12-07T16:08:40;2.50;;;1.80;;
8893;SDS011;4483;48.622;9.230;2022-12-07T16:11:08;2.00;;;1.90;;
8893;SDS011;4483;48.622;9.230;2022-12-07T16:13:35;1.80;;;1.70;;